California Valley, California
Current Conditions -  °F | °C
As of 10:21 PM on Thursday 18 Dec 2014 (Local Time) from KSMX Reporting Station
Broken Clouds Broken Clouds  
Wind Chill: 50°   Ceiling: 2800
Heat Index: 50°   Visibility: 10mi
Dew Point: 46°   Wind: 6mph
Humidity: 86%   Direction: 90°E
Pressure: 30.23"   Gusts: NA
Location:  35.235°N, 120.021°W
Report Text: KSMX 190621Z AUTO 09005KT 10SM BKN028 10/08 A3023 RMK AO2 T01000078 TSNO
Loading
Personal Weather Stations






























Interactive Weather Map New forecast layout! Learn more

10-Day Weather Forecast

Advertisements
Track Severe Weather on mobile